createdAt,value
2019-02-26T00:00:00.831Z,20.53
2019-02-26T00:02:32.568Z,17.90
2019-02-26T00:05:03.515Z,19.87
2019-02-26T00:07:33.280Z,18.50
2019-02-26T00:10:04.654Z,19.73
2019-02-26T00:12:35.662Z,20.97
2019-02-26T00:15:13.240Z,19.30
2019-02-26T00:17:45.649Z,20.00
2019-02-26T00:20:17.077Z,18.98
2019-02-26T00:22:46.081Z,20.77
2019-02-26T00:25:17.742Z,18.90
2019-02-26T00:27:49.341Z,19.65
2019-02-26T00:30:18.832Z,19.05
2019-02-26T00:32:48.848Z,19.57
2019-02-26T00:35:20.660Z,19.62
2019-02-26T00:37:51.099Z,19.70
2019-02-26T00:40:21.288Z,18.67
2019-02-26T00:42:54.358Z,19.52
2019-02-26T00:45:24.735Z,20.02
2019-02-26T00:47:55.964Z,18.65
2019-02-26T00:50:25.351Z,17.95
2019-02-26T00:52:59.290Z,19.80
2019-02-26T00:55:29.313Z,19.52
2019-02-26T00:57:59.159Z,19.15
2019-02-26T01:00:30.948Z,19.20
2019-02-26T01:03:03.551Z,18.80
2019-02-26T01:05:34.042Z,20.15
2019-02-26T01:08:06.036Z,19.10
2019-02-26T01:10:37.554Z,19.40
2019-02-26T01:13:07.330Z,19.32
2019-02-26T01:15:37.067Z,19.48
2019-02-26T01:18:07.243Z,18.90
2019-02-26T01:20:36.828Z,18.27
2019-02-26T01:23:06.495Z,19.42
2019-02-26T01:25:38.234Z,18.60
2019-02-26T01:28:09.461Z,19.48
2019-02-26T01:30:40.929Z,17.70
2019-02-26T01:33:11.008Z,19.00
2019-02-26T01:35:40.534Z,19.05
2019-02-26T01:38:12.649Z,20.40
2019-02-26T01:40:43.567Z,18.67
2019-02-26T01:43:12.911Z,18.73
2019-02-26T01:45:44.038Z,17.05
2019-02-26T01:48:16.718Z,18.30
2019-02-26T01:50:45.870Z,18.90
2019-02-26T01:53:17.526Z,18.82
2019-02-26T01:55:48.313Z,18.85
2019-02-26T01:58:18.287Z,20.12
2019-02-26T02:00:47.802Z,19.82
2019-02-26T02:03:20.813Z,17.80
2019-02-26T02:05:53.026Z,19.60
2019-02-26T02:08:24.719Z,18.90
2019-02-26T02:10:56.594Z,18.65
2019-02-26T02:13:28.282Z,18.02
2019-02-26T02:15:59.815Z,18.50
2019-02-26T02:18:29.993Z,17.40
2019-02-26T02:20:59.680Z,19.75
2019-02-26T02:23:30.347Z,18.48
2019-02-26T02:26:04.204Z,17.87
2019-02-26T02:28:33.725Z,18.10
2019-02-26T02:31:03.264Z,17.92
2019-02-26T02:33:34.939Z,18.50
2019-02-26T02:36:06.369Z,18.67
2019-02-26T02:38:37.238Z,18.23
2019-02-26T02:41:07.069Z,18.12
2019-02-26T02:43:36.779Z,17.75
2019-02-26T02:46:06.561Z,17.42
2019-02-26T02:48:36.114Z,19.00
2019-02-26T02:51:07.934Z,18.82
2019-02-26T02:53:39.065Z,19.90
2019-02-26T02:56:10.581Z,20.90
2019-02-26T02:58:41.809Z,21.55
2019-02-26T03:01:14.020Z,22.67
2019-02-26T03:03:42.879Z,20.43
2019-02-26T03:06:15.888Z,20.70
2019-02-26T03:08:47.992Z,20.55
2019-02-26T03:11:17.378Z,20.35
2019-02-26T03:13:48.609Z,20.05
2019-02-26T03:16:19.457Z,20.00
2019-02-26T03:18:49.611Z,19.77
2019-02-26T03:21:21.595Z,20.90
2019-02-26T03:23:51.619Z,21.02
2019-02-26T03:26:23.533Z,21.17
2019-02-26T03:28:53.350Z,19.42
2019-02-26T03:31:29.268Z,21.12
2019-02-26T03:34:00.007Z,21.52
2019-02-26T03:36:25.929Z,20.57
2019-02-26T03:38:59.786Z,19.48
2019-02-26T03:41:29.081Z,22.15
2019-02-26T03:44:00.669Z,21.70
2019-02-26T03:46:30.835Z,20.50
2019-02-26T03:49:02.695Z,20.52
2019-02-26T03:51:31.779Z,22.52
2019-02-26T03:54:02.024Z,21.80
2019-02-26T03:56:31.633Z,23.83
2019-02-26T03:59:04.003Z,21.85
2019-02-26T04:01:32.821Z,23.12
2019-02-26T04:04:04.817Z,21.50
2019-02-26T04:06:36.043Z,23.32
2019-02-26T04:09:08.540Z,22.55
2019-02-26T04:11:40.817Z,22.50
2019-02-26T04:14:12.583Z,23.65
2019-02-26T04:16:43.623Z,22.05
2019-02-26T04:19:13.178Z,22.30
2019-02-26T04:22:29.811Z,22.45
2019-02-26T04:25:08.323Z,20.90
2019-02-26T04:28:13.885Z,21.52
2019-02-26T04:31:11.740Z,22.80
2019-02-26T04:34:05.286Z,22.35
2019-02-26T04:36:47.176Z,22.40
2019-02-26T04:39:47.507Z,22.80
2019-02-26T04:42:48.103Z,21.87
2019-02-26T04:45:44.563Z,23.15
2019-02-26T04:48:20.177Z,22.20
2019-02-26T04:50:50.331Z,21.25
2019-02-26T04:53:20.078Z,20.68
2019-02-26T04:55:49.874Z,21.20
2019-02-26T04:58:20.759Z,21.25
2019-02-26T05:00:51.048Z,21.42
2019-02-26T05:03:20.813Z,22.50
2019-02-26T05:05:53.922Z,22.50
2019-02-26T05:08:22.114Z,23.62
2019-02-26T05:10:54.237Z,23.40
2019-02-26T05:13:25.227Z,22.90
2019-02-26T05:15:54.799Z,22.25
2019-02-26T05:18:25.965Z,24.80
2019-02-26T05:20:59.196Z,21.82
2019-02-26T05:23:31.174Z,20.82
2019-02-26T05:26:05.079Z,23.10
2019-02-26T05:28:35.341Z,22.52
2019-02-26T05:31:05.905Z,22.17
2019-02-26T05:33:34.684Z,22.05
2019-02-26T05:36:06.228Z,22.45
2019-02-26T05:38:37.684Z,21.82
2019-02-26T05:41:08.106Z,21.25
2019-02-26T05:43:46.898Z,21.25
2019-02-26T05:46:15.890Z,22.87
2019-02-26T05:48:48.372Z,20.10
2019-02-26T05:51:18.079Z,22.07
2019-02-26T05:53:50.386Z,21.40
2019-02-26T05:56:20.709Z,22.60
2019-02-26T05:58:51.623Z,22.75
2019-02-26T06:01:22.555Z,20.82
2019-02-26T06:03:52.843Z,20.40
2019-02-26T06:06:22.909Z,20.25
2019-02-26T06:08:55.207Z,21.12
2019-02-26T06:11:28.352Z,19.55
2019-02-26T06:13:56.455Z,20.90
2019-02-26T06:16:28.864Z,20.88
2019-02-26T06:18:58.329Z,22.93
2019-02-26T06:21:28.868Z,21.30
2019-02-26T06:23:58.553Z,21.70
2019-02-26T06:26:32.421Z,20.65
2019-02-26T06:28:59.759Z,19.98
2019-02-26T06:31:29.423Z,19.30
2019-02-26T06:34:01.511Z,20.27
2019-02-26T06:36:30.567Z,21.52
2019-02-26T06:39:01.522Z,21.00
2019-02-26T06:41:31.635Z,20.92
2019-02-26T06:44:01.614Z,19.02
2019-02-26T06:46:35.927Z,20.45
2019-02-26T06:49:07.181Z,20.40
2019-02-26T06:51:36.972Z,21.15
2019-02-26T06:54:08.177Z,23.55
2019-02-26T06:56:43.290Z,23.02
2019-02-26T06:59:12.238Z,21.95
2019-02-26T07:01:42.194Z,23.20
2019-02-26T07:04:12.930Z,24.37
2019-02-26T07:06:42.673Z,23.20
2019-02-26T07:09:15.261Z,22.83
2019-02-26T07:11:44.014Z,24.30
2019-02-26T07:14:13.779Z,24.20
2019-02-26T07:16:43.719Z,26.13
2019-02-26T07:19:14.200Z,25.77
2019-02-26T07:21:45.595Z,26.80
2019-02-26T07:24:18.116Z,26.83
2019-02-26T07:26:48.422Z,27.07
2019-02-26T07:29:18.043Z,27.40
2019-02-26T07:31:49.590Z,28.20
2019-02-26T07:34:22.707Z,30.30
2019-02-26T07:36:52.568Z,25.70
2019-02-26T07:39:22.831Z,26.73
2019-02-26T07:42:16.377Z,27.77
2019-02-26T07:44:45.522Z,30.40
2019-02-26T07:47:17.033Z,30.37
2019-02-26T07:49:48.154Z,30.30
2019-02-26T07:52:17.988Z,32.90
2019-02-26T07:54:49.500Z,32.07
2019-02-26T07:57:20.740Z,33.57
2019-02-26T07:59:51.038Z,33.10
2019-02-26T08:02:20.765Z,35.80
2019-02-26T08:04:50.571Z,36.37
2019-02-26T08:07:21.492Z,33.67
2019-02-26T08:09:51.813Z,33.10
2019-02-26T08:12:21.644Z,33.60
2019-02-26T08:14:51.256Z,34.73
2019-02-26T08:17:21.013Z,33.60
2019-02-26T08:19:50.906Z,34.67
2019-02-26T08:22:21.001Z,35.90
2019-02-26T08:24:52.711Z,37.17
2019-02-26T08:27:22.045Z,38.37
2019-02-26T08:30:18.695Z,42.10
2019-02-26T08:32:51.144Z,41.57
2019-02-26T08:35:19.127Z,44.80
2019-02-26T08:37:49.203Z,43.97
2019-02-26T08:40:18.841Z,42.50
2019-02-26T08:42:48.574Z,43.97
2019-02-26T08:45:25.057Z,42.77
2019-02-26T08:47:54.094Z,40.97
2019-02-26T08:50:24.079Z,47.23
2019-02-26T08:52:56.212Z,42.10
2019-02-26T08:55:25.244Z,43.60
2019-02-26T08:57:56.513Z,41.40
2019-02-26T09:00:26.752Z,47.47
2019-02-26T09:03:17.967Z,45.50
2019-02-26T09:05:49.292Z,44.10
2019-02-26T09:08:19.473Z,44.87
2019-02-26T09:10:49.258Z,46.30
2019-02-26T09:13:18.919Z,42.43
2019-02-26T09:15:48.569Z,41.60
2019-02-26T09:18:20.507Z,41.70
2019-02-26T09:20:49.916Z,45.33
2019-02-26T09:23:21.168Z,45.70
2019-02-26T09:25:54.874Z,46.80
2019-02-26T09:28:25.330Z,46.60
2019-02-26T09:30:56.339Z,47.27
2019-02-26T09:33:32.687Z,44.60
2019-02-26T09:36:00.214Z,46.30
2019-02-26T09:38:29.893Z,45.67
2019-02-26T09:40:59.637Z,45.77
2019-02-26T09:43:29.449Z,48.20
2019-02-26T09:46:19.175Z,46.60
2019-02-26T09:48:50.360Z,46.90
2019-02-26T09:51:20.048Z,48.57
2019-02-26T09:53:51.980Z,45.90
2019-02-26T09:56:21.373Z,44.93
2019-02-26T09:58:51.251Z,44.50
2019-02-26T10:01:21.062Z,45.30
2019-02-26T10:03:50.833Z,45.40
2019-02-26T10:06:21.628Z,43.93
2019-02-26T10:08:56.260Z,47.23
2019-02-26T10:11:27.872Z,43.30
2019-02-26T10:13:57.440Z,44.77
2019-02-26T10:16:28.162Z,43.00
2019-02-26T10:18:58.928Z,44.43
2019-02-26T10:21:28.824Z,46.20
2019-02-26T10:23:59.906Z,42.37
2019-02-26T10:26:33.366Z,39.90
2019-02-26T10:29:04.387Z,39.60
2019-02-26T10:31:34.686Z,41.87
2019-02-26T10:34:07.865Z,37.80
2019-02-26T10:36:40.857Z,36.40
2019-02-26T10:39:10.326Z,39.00
2019-02-26T10:41:42.285Z,39.00
2019-02-26T10:44:11.725Z,38.60
2019-02-26T10:46:44.582Z,36.60
2019-02-26T10:49:14.811Z,39.70
2019-02-26T10:51:44.762Z,38.37
2019-02-26T10:54:17.869Z,35.00
2019-02-26T10:56:46.680Z,32.13
2019-02-26T10:59:19.505Z,32.83
2019-02-26T11:01:51.989Z,33.27
2019-02-26T11:04:21.251Z,33.20
2019-02-26T11:06:51.200Z,34.60
2019-02-26T11:09:25.946Z,32.50
2019-02-26T11:11:54.961Z,31.90
2019-02-26T11:14:24.669Z,31.13
2019-02-26T11:16:54.802Z,32.33
2019-02-26T11:19:27.247Z,34.00
2019-02-26T11:21:58.702Z,32.20
2019-02-26T11:24:31.450Z,34.03
2019-02-26T11:27:00.899Z,35.20
2019-02-26T11:29:33.057Z,36.00
2019-02-26T11:32:04.636Z,35.03
2019-02-26T11:34:36.244Z,32.90
2019-02-26T11:37:08.800Z,34.80
2019-02-26T11:39:40.127Z,37.40
2019-02-26T11:42:11.270Z,38.17
2019-02-26T11:44:41.246Z,36.30
2019-02-26T11:47:13.716Z,36.70
2019-02-26T11:49:44.228Z,36.30
2019-02-26T11:52:14.617Z,35.80
2019-02-26T11:54:47.886Z,34.30
2019-02-26T11:57:17.978Z,33.97
2019-02-26T11:59:47.791Z,34.03
2019-02-26T12:02:25.208Z,35.60
2019-02-26T12:04:49.268Z,33.60
2019-02-26T12:07:19.240Z,35.00
2019-02-26T12:09:49.870Z,34.87
2019-02-26T12:12:19.930Z,36.47
2019-02-26T12:14:49.851Z,35.73
2019-02-26T12:17:19.773Z,36.23
2019-02-26T12:19:51.486Z,36.53
2019-02-26T12:22:22.676Z,33.90
2019-02-26T12:27:24.919Z,33.60
2019-02-26T12:29:54.844Z,34.70
2019-02-26T12:32:26.911Z,34.60
2019-02-26T12:34:56.536Z,33.20
2019-02-26T12:37:26.413Z,35.17
2019-02-26T12:39:57.871Z,35.80
2019-02-26T12:42:27.987Z,33.87
2019-02-26T12:45:01.395Z,33.57
2019-02-26T12:47:29.712Z,35.90
2019-02-26T12:50:05.195Z,35.27
2019-02-26T12:52:34.451Z,34.57
2019-02-26T12:55:08.149Z,33.23
2019-02-26T12:57:37.163Z,32.77
2019-02-26T13:00:16.574Z,32.97
2019-02-26T13:02:49.475Z,34.67
2019-02-26T13:05:19.678Z,34.43
2019-02-26T13:07:51.845Z,34.20
2019-02-26T13:10:27.203Z,30.53
2019-02-26T13:13:00.166Z,32.60
2019-02-26T13:15:28.920Z,31.50
2019-02-26T13:17:58.982Z,31.73
2019-02-26T13:20:30.414Z,32.50
2019-02-26T13:23:16.218Z,33.00
2019-02-26T13:25:32.013Z,32.90
2019-02-26T13:28:03.454Z,34.20
2019-02-26T13:30:33.317Z,34.73
2019-02-26T13:33:05.359Z,34.80
2019-02-26T13:35:34.637Z,36.90
2019-02-26T13:38:05.729Z,34.07
2019-02-26T13:40:38.445Z,35.27
2019-02-26T13:43:09.003Z,35.47
2019-02-26T13:45:38.908Z,36.67
2019-02-26T13:48:08.761Z,36.13
2019-02-26T13:50:39.679Z,37.40
2019-02-26T13:53:10.650Z,40.23
2019-02-26T13:55:40.534Z,38.73
2019-02-26T13:58:11.888Z,38.80
2019-02-26T14:00:42.786Z,40.50
2019-02-26T14:03:12.478Z,39.70
2019-02-26T14:05:43.270Z,39.73
2019-02-26T14:08:13.097Z,39.10
2019-02-26T14:10:43.073Z,40.17
2019-02-26T14:13:12.996Z,39.33
2019-02-26T14:15:43.001Z,40.50
2019-02-26T14:18:12.873Z,38.77
2019-02-26T14:20:42.634Z,40.17
2019-02-26T14:23:12.517Z,40.70
2019-02-26T14:25:42.516Z,39.00
2019-02-26T14:28:13.871Z,38.93
2019-02-26T14:30:43.880Z,40.40
2019-02-26T14:33:13.671Z,40.10
2019-02-26T14:35:43.712Z,43.53
2019-02-26T14:38:13.489Z,41.60
2019-02-26T14:40:43.326Z,38.90
2019-02-26T14:43:13.118Z,39.17
2019-02-26T14:45:44.655Z,38.70
2019-02-26T14:48:14.482Z,41.17
2019-02-26T14:50:46.172Z,41.27
2019-02-26T14:53:15.959Z,43.10
2019-02-26T14:55:45.828Z,43.00
2019-02-26T14:58:15.706Z,42.00
2019-02-26T15:00:45.463Z,42.50
2019-02-26T15:03:15.184Z,40.83
2019-02-26T15:05:45.089Z,34.80
2019-02-26T15:08:14.987Z,39.30
2019-02-26T15:10:44.902Z,39.03
2019-02-26T15:13:15.346Z,40.10
2019-02-26T15:15:45.141Z,39.80
2019-02-26T15:18:14.980Z,41.43
2019-02-26T15:20:46.270Z,40.23
2019-02-26T15:23:16.035Z,41.73
2019-02-26T15:25:45.845Z,40.90
2019-02-26T15:28:16.077Z,39.07
2019-02-26T15:30:45.907Z,37.90
2019-02-26T15:33:15.785Z,35.63
2019-02-26T15:35:48.362Z,37.87
2019-02-26T15:38:18.272Z,36.50
2019-02-26T15:40:48.192Z,34.60
2019-02-26T15:43:18.812Z,34.80
2019-02-26T15:45:51.957Z,33.90
2019-02-26T15:48:20.655Z,36.17
2019-02-26T15:50:50.561Z,34.93
2019-02-26T15:53:23.344Z,35.20
2019-02-26T15:55:59.140Z,33.87
2019-02-26T15:58:27.330Z,34.87
2019-02-26T16:00:57.546Z,35.60
2019-02-26T16:03:29.282Z,34.40
2019-02-26T16:05:58.928Z,34.10
2019-02-26T16:08:34.611Z,35.40
2019-02-26T16:11:00.895Z,34.47
2019-02-26T16:13:30.658Z,34.97
2019-02-26T16:16:00.839Z,34.30
2019-02-26T16:18:30.524Z,34.87
2019-02-26T16:21:00.454Z,36.40
2019-02-26T16:23:30.387Z,37.17
2019-02-26T16:26:00.718Z,34.57
2019-02-26T16:28:30.717Z,35.00
2019-02-26T16:31:00.573Z,35.47
2019-02-26T16:33:30.541Z,34.77
2019-02-26T16:36:00.800Z,38.27
2019-02-26T16:38:35.234Z,36.37
2019-02-26T16:41:05.606Z,35.33
2019-02-26T16:43:35.461Z,33.87
2019-02-26T16:46:08.289Z,35.40
2019-02-26T16:48:36.959Z,33.43
2019-02-26T16:51:06.734Z,32.40
2019-02-26T16:53:36.710Z,35.27
2019-02-26T16:56:07.889Z,33.10
2019-02-26T16:58:37.748Z,32.03
2019-02-26T17:01:07.883Z,30.63
2019-02-26T17:03:37.908Z,30.00
2019-02-26T17:06:07.704Z,30.37
2019-02-26T17:08:37.562Z,28.57
2019-02-26T17:11:13.304Z,30.23
2019-02-26T17:13:43.421Z,32.20
2019-02-26T17:16:14.473Z,29.83
2019-02-26T17:18:44.375Z,28.60
2019-02-26T17:21:14.759Z,30.20
2019-02-26T17:23:44.792Z,28.27
2019-02-26T17:26:16.120Z,28.30
2019-02-26T17:28:45.969Z,30.83
2019-02-26T17:31:17.372Z,30.10
2019-02-26T17:33:47.879Z,28.27
2019-02-26T17:36:17.645Z,31.83
2019-02-26T17:38:51.492Z,30.00
2019-02-26T17:41:19.602Z,30.17
2019-02-26T17:43:49.287Z,29.50
2019-02-26T17:46:20.666Z,30.50
2019-02-26T17:48:50.383Z,30.73
2019-02-26T17:51:20.520Z,30.50
2019-02-26T17:53:52.079Z,31.67
2019-02-26T17:56:21.860Z,31.77
2019-02-26T17:58:51.703Z,34.17
2019-02-26T18:01:24.686Z,32.30
2019-02-26T18:03:54.367Z,32.60
2019-02-26T18:06:24.119Z,31.83
2019-02-26T18:08:56.466Z,30.73
2019-02-26T18:11:26.911Z,32.43
2019-02-26T18:13:57.796Z,32.50
2019-02-26T18:16:28.650Z,33.40
2019-02-26T18:18:59.569Z,32.63
2019-02-26T18:21:30.182Z,34.40
2019-02-26T18:24:00.635Z,32.03
2019-02-26T18:26:30.481Z,35.27
2019-02-26T18:29:00.302Z,35.10
2019-02-26T18:31:34.044Z,34.83
2019-02-26T18:34:05.687Z,33.50
2019-02-26T18:36:38.211Z,35.23
2019-02-26T18:39:10.448Z,33.17
2019-02-26T18:41:40.444Z,33.07
2019-02-26T18:44:10.267Z,34.13
2019-02-26T18:46:41.256Z,31.97
2019-02-26T18:49:11.174Z,33.00
2019-02-26T18:51:41.053Z,33.73
2019-02-26T18:54:10.939Z,35.90
2019-02-26T18:56:40.855Z,38.00
2019-02-26T18:59:10.856Z,34.97
2019-02-26T19:01:40.722Z,37.47
2019-02-26T19:04:10.496Z,36.97
2019-02-26T19:06:41.918Z,33.60
2019-02-26T19:09:12.321Z,35.07
2019-02-26T19:11:43.653Z,32.67
2019-02-26T19:14:14.142Z,33.43
2019-02-26T19:16:44.099Z,34.37
2019-02-26T19:19:13.831Z,34.30
2019-02-26T19:21:43.618Z,33.80
2019-02-26T19:24:15.474Z,31.33
2019-02-26T19:26:46.647Z,33.63
2019-02-26T19:29:17.026Z,37.70
2019-02-26T19:31:46.717Z,33.17
2019-02-26T19:34:16.640Z,36.10
2019-02-26T19:36:46.505Z,33.57
2019-02-26T19:39:20.186Z,32.50
2019-02-26T19:41:50.111Z,33.50
2019-02-26T19:44:19.975Z,33.03
2019-02-26T19:46:50.171Z,34.13
2019-02-26T19:49:21.600Z,36.27
2019-02-26T19:51:51.598Z,32.50
2019-02-26T19:54:22.831Z,34.47
2019-02-26T19:56:54.690Z,34.67
2019-02-26T19:59:26.937Z,37.40
2019-02-26T20:01:59.050Z,36.40
2019-02-26T20:04:31.591Z,34.63
2019-02-26T20:07:00.837Z,34.70
2019-02-26T20:09:31.251Z,34.37
2019-02-26T20:12:11.483Z,34.47
2019-02-26T20:14:41.132Z,36.17
2019-02-26T20:17:14.797Z,34.00
2019-02-26T20:19:44.030Z,34.97
2019-02-26T20:22:13.967Z,42.00
2019-02-26T20:24:43.899Z,38.10
2019-02-26T20:27:21.594Z,37.17
2019-02-26T20:29:49.809Z,35.10
2019-02-26T20:32:19.804Z,37.07
2019-02-26T20:34:49.555Z,38.70
2019-02-26T20:37:19.250Z,37.63
2019-02-26T20:39:48.995Z,36.40
2019-02-26T20:42:18.984Z,35.20
2019-02-26T20:44:48.652Z,36.50
2019-02-26T20:47:18.463Z,33.60
2019-02-26T20:49:48.268Z,34.50
2019-02-26T20:52:17.824Z,33.83
2019-02-26T20:54:48.155Z,31.83
2019-02-26T20:57:18.346Z,32.00
2019-02-26T20:59:51.712Z,33.10
2019-02-26T21:02:19.847Z,32.07
2019-02-26T21:07:25.683Z,30.37
2019-02-26T21:10:03.447Z,30.47
2019-02-26T21:12:28.786Z,29.97
2019-02-26T21:14:58.114Z,30.03
2019-02-26T21:17:27.773Z,30.97
2019-02-26T21:19:57.694Z,29.17
2019-02-26T21:22:27.427Z,31.43
2019-02-26T21:24:58.767Z,30.53
2019-02-26T21:27:29.823Z,37.17
2019-02-26T21:29:59.671Z,35.03
2019-02-26T21:32:29.514Z,34.63
2019-02-26T21:34:59.138Z,37.60
2019-02-26T21:37:32.631Z,36.00
2019-02-26T21:40:01.650Z,34.53
2019-02-26T21:42:31.431Z,34.33
2019-02-26T21:45:01.139Z,34.43
2019-02-26T21:47:30.845Z,33.03
2019-02-26T21:50:00.608Z,31.00
2019-02-26T21:52:30.369Z,31.57
2019-02-26T21:55:01.907Z,33.70
2019-02-26T21:57:31.742Z,31.07
2019-02-26T22:00:05.166Z,32.40
2019-02-26T22:02:33.044Z,33.03
2019-02-26T22:05:04.999Z,31.07
2019-02-26T22:07:34.374Z,30.67
2019-02-26T22:10:07.905Z,30.63
2019-02-26T22:12:37.814Z,31.30
2019-02-26T22:15:11.547Z,30.00
2019-02-26T22:17:43.928Z,30.40
2019-02-26T22:20:22.069Z,30.30
2019-02-26T22:22:48.061Z,30.40
2019-02-26T22:25:18.512Z,28.17
2019-02-26T22:27:48.412Z,27.53
2019-02-26T22:30:22.030Z,30.57
2019-02-26T22:32:52.641Z,29.23
2019-02-26T22:35:25.636Z,27.73
2019-02-26T22:37:53.802Z,26.33
2019-02-26T22:40:23.408Z,27.73
2019-02-26T22:42:53.117Z,29.92
2019-02-26T22:45:22.901Z,30.27
2019-02-26T22:47:53.109Z,29.70
2019-02-26T22:50:24.844Z,30.10
2019-02-26T22:52:54.094Z,29.40
2019-02-26T22:55:24.362Z,31.00
2019-02-26T22:57:53.976Z,30.32
2019-02-26T23:00:51.453Z,30.02
2019-02-26T23:03:21.291Z,27.07
2019-02-26T23:05:50.988Z,28.15
2019-02-26T23:08:21.118Z,29.42
2019-02-26T23:10:51.465Z,29.55
2019-02-26T23:13:21.664Z,30.10
2019-02-26T23:15:52.659Z,29.77
2019-02-26T23:18:22.855Z,28.32
2019-02-26T23:20:52.647Z,29.45
2019-02-26T23:23:23.021Z,30.30
2019-02-26T23:25:52.729Z,28.65
2019-02-26T23:28:23.289Z,30.75
2019-02-26T23:30:54.837Z,28.98
2019-02-26T23:33:24.456Z,29.20
2019-02-26T23:35:55.145Z,27.60
2019-02-26T23:38:25.523Z,28.07
2019-02-26T23:40:55.375Z,29.72
2019-02-26T23:43:25.121Z,29.82
2019-02-26T23:45:57.093Z,28.95
2019-02-26T23:48:27.903Z,28.00
2019-02-26T23:50:57.517Z,27.77
2019-02-26T23:53:33.820Z,29.48
2019-02-26T23:56:00.774Z,27.85
2019-02-26T23:58:31.200Z,27.15
